createdAt,value
2023-08-14T00:04:03.799Z,4.80
2023-08-14T00:09:05.466Z,5.68
2023-08-14T00:14:07.037Z,6.00
2023-08-14T00:19:08.704Z,4.72
2023-08-14T00:24:10.341Z,4.97
2023-08-14T00:29:11.888Z,5.53
2023-08-14T00:34:13.473Z,5.30
2023-08-14T00:39:15.029Z,4.50
2023-08-14T00:44:16.645Z,4.97
2023-08-14T00:49:18.443Z,4.70
2023-08-14T00:54:20.069Z,9.95
2023-08-14T00:59:21.824Z,7.60
2023-08-14T01:04:23.567Z,7.20
2023-08-14T01:09:25.542Z,7.68
2023-08-14T01:14:32.561Z,7.38
2023-08-14T01:19:38.056Z,6.47
2023-08-14T01:25:17.288Z,5.88
2023-08-14T01:30:19.082Z,5.47
2023-08-14T01:35:23.298Z,10.48
2023-08-14T01:40:31.709Z,9.63
2023-08-14T01:45:36.834Z,9.23
2023-08-14T01:50:40.315Z,6.97
2023-08-14T01:55:47.808Z,6.10
2023-08-14T02:00:49.548Z,7.35
2023-08-14T02:05:51.185Z,10.25
2023-08-14T02:10:52.781Z,9.57
2023-08-14T02:15:54.446Z,10.68
2023-08-14T02:20:56.576Z,9.07
2023-08-14T02:25:58.178Z,11.50
2023-08-14T02:31:02.900Z,9.45
2023-08-14T02:36:04.612Z,9.60
2023-08-14T02:41:07.713Z,9.52
2023-08-14T02:46:09.447Z,8.93
2023-08-14T02:51:11.117Z,11.98
2023-08-14T02:56:12.716Z,8.23
2023-08-14T03:01:14.343Z,9.02
2023-08-14T03:06:18.621Z,10.82
2023-08-14T03:11:20.378Z,9.20
2023-08-14T03:16:22.109Z,9.57
2023-08-14T03:21:23.747Z,8.88
2023-08-14T03:26:25.720Z,12.55
2023-08-14T03:31:27.366Z,9.38
2023-08-14T03:36:31.008Z,7.78
2023-08-14T03:41:34.049Z,9.65
2023-08-14T03:46:37.250Z,9.20
2023-08-14T03:51:38.859Z,8.57
2023-08-14T03:56:41.322Z,10.27
2023-08-14T04:01:44.376Z,13.05
2023-08-14T04:06:48.566Z,13.27
2023-08-14T04:11:50.263Z,9.63
2023-08-14T04:16:53.073Z,10.88
2023-08-14T04:21:54.696Z,9.63
2023-08-14T04:26:56.473Z,10.40
2023-08-14T04:31:59.503Z,11.60
2023-08-14T04:37:01.195Z,10.02
2023-08-14T04:42:04.078Z,9.35
2023-08-14T04:47:05.991Z,9.95
2023-08-14T04:52:07.649Z,10.93
2023-08-14T04:57:09.301Z,11.20
2023-08-14T05:02:11.037Z,9.75
2023-08-14T05:07:13.386Z,9.88
2023-08-14T05:12:15.099Z,17.50
2023-08-14T05:17:17.164Z,14.65
2023-08-14T05:22:20.923Z,8.98
2023-08-14T05:27:22.809Z,9.32
2023-08-14T05:32:24.367Z,10.05
2023-08-14T05:37:25.945Z,11.55
2023-08-14T05:42:27.555Z,8.95
2023-08-14T05:47:29.247Z,7.63
2023-08-14T05:52:30.831Z,8.10
2023-08-14T05:57:32.378Z,9.65
2023-08-14T06:02:34.006Z,6.07
2023-08-14T06:07:38.158Z,7.03
2023-08-14T06:12:39.889Z,6.45
2023-08-14T06:17:42.928Z,6.50
2023-08-14T06:22:47.315Z,9.13
2023-08-14T06:27:53.987Z,6.40
2023-08-14T06:32:55.607Z,5.22
2023-08-14T06:37:57.196Z,6.80
2023-08-14T06:42:58.832Z,8.88
2023-08-14T06:48:00.465Z,6.00
2023-08-14T06:53:02.053Z,5.47
2023-08-14T06:58:03.850Z,8.20
2023-08-14T07:03:05.580Z,5.25
2023-08-14T07:08:07.305Z,4.80
2023-08-14T07:13:09.226Z,6.07
2023-08-14T07:18:10.801Z,6.18
2023-08-14T07:23:16.431Z,7.57
2023-08-14T07:28:18.390Z,5.53
2023-08-14T07:33:19.970Z,7.10
2023-08-14T07:38:21.544Z,5.35
2023-08-14T07:43:24.114Z,7.22
2023-08-14T07:48:25.695Z,5.65
2023-08-14T07:53:27.277Z,4.80
2023-08-14T07:58:29.052Z,5.40
2023-08-14T08:03:30.690Z,5.22
2023-08-14T08:08:32.257Z,5.80
2023-08-14T08:13:33.837Z,5.15
2023-08-14T08:18:35.993Z,3.78
2023-08-14T08:23:37.704Z,7.18
2023-08-14T08:28:39.501Z,6.20
2023-08-14T08:33:41.211Z,5.10
2023-08-14T08:38:43.075Z,5.00
2023-08-14T08:43:45.023Z,6.97
2023-08-14T08:48:51.836Z,4.88
2023-08-14T08:53:53.436Z,4.38
2023-08-14T08:58:55.579Z,5.30
2023-08-14T09:03:57.414Z,6.50
2023-08-14T09:08:59.417Z,5.60
2023-08-14T09:14:06.418Z,3.92
2023-08-14T09:19:08.098Z,6.75
2023-08-14T09:24:12.835Z,3.97
2023-08-14T09:34:21.911Z,3.67
2023-08-14T09:39:24.913Z,3.95
2023-08-14T09:44:26.884Z,5.30
2023-08-14T09:49:28.707Z,3.95
2023-08-14T09:54:35.344Z,3.33
2023-08-14T09:59:37.965Z,3.28
2023-08-14T10:04:40.577Z,3.35
2023-08-14T10:09:46.289Z,4.10
2023-08-14T10:15:05.323Z,5.20
2023-08-14T10:20:08.497Z,3.22
2023-08-14T10:25:11.384Z,3.30
2023-08-14T10:30:13.717Z,4.40
2023-08-14T10:35:15.377Z,2.85
2023-08-14T10:40:26.193Z,5.28
2023-08-14T10:45:29.336Z,3.10
2023-08-14T10:50:31.768Z,4.25
2023-08-14T10:55:42.214Z,3.80
2023-08-14T11:00:46.639Z,4.95
2023-08-14T11:05:48.728Z,4.57
2023-08-14T11:10:51.061Z,5.90
2023-08-14T11:15:52.806Z,5.20
2023-08-14T11:20:54.597Z,5.63
2023-08-14T11:25:57.039Z,3.63
2023-08-14T11:30:59.031Z,5.60
2023-08-14T11:41:05.456Z,4.47
2023-08-14T11:46:07.202Z,4.22
2023-08-14T11:51:08.903Z,4.70
2023-08-14T11:56:10.758Z,5.18
2023-08-14T12:01:12.416Z,4.18
2023-08-14T12:06:14.296Z,3.63
2023-08-14T12:11:18.948Z,5.35
2023-08-14T12:16:26.221Z,3.75
2023-08-14T12:21:30.124Z,5.38
2023-08-14T12:26:42.010Z,3.90
2023-08-14T12:31:43.917Z,5.13
2023-08-14T12:36:45.738Z,5.22
2023-08-14T12:41:47.698Z,3.92
2023-08-14T12:46:49.293Z,4.75
2023-08-14T12:51:54.089Z,5.32
2023-08-14T12:57:01.523Z,5.10
2023-08-14T13:02:03.712Z,4.20
2023-08-14T13:07:05.383Z,5.32
2023-08-14T13:12:07.222Z,5.20
2023-08-14T13:17:08.793Z,5.47
2023-08-14T13:22:10.418Z,4.03
2023-08-14T13:27:12.055Z,4.68
2023-08-14T13:32:13.713Z,4.15
2023-08-14T13:37:15.303Z,5.55
2023-08-14T13:42:17.420Z,5.22
2023-08-14T13:47:19.552Z,4.65
2023-08-14T13:52:21.143Z,4.80
2023-08-14T13:57:23.850Z,5.07
2023-08-14T14:02:25.436Z,4.60
2023-08-14T14:07:30.523Z,4.35
2023-08-14T14:12:35.805Z,5.10
2023-08-14T14:17:38.471Z,4.35
2023-08-14T14:22:40.044Z,4.35
2023-08-14T14:27:42.056Z,4.72
2023-08-14T14:32:43.713Z,5.22
2023-08-14T14:37:52.609Z,6.13
2023-08-14T14:42:54.845Z,5.47
2023-08-14T14:47:56.456Z,3.80
2023-08-14T14:52:58.765Z,4.85
2023-08-14T14:58:00.361Z,4.45
2023-08-14T15:03:02.005Z,5.93
2023-08-14T15:08:03.784Z,4.13
2023-08-14T15:13:05.367Z,6.72
2023-08-14T15:18:07.701Z,4.90
2023-08-14T15:23:09.311Z,8.05
2023-08-14T15:28:10.893Z,6.07
2023-08-14T15:33:12.605Z,4.43
2023-08-14T15:38:14.319Z,5.63
2023-08-14T15:43:16.653Z,5.65
2023-08-14T15:48:18.271Z,4.53
2023-08-14T15:53:19.879Z,6.70
2023-08-14T15:58:21.511Z,5.40
2023-08-14T16:03:23.074Z,5.53
2023-08-14T16:08:24.665Z,4.47
2023-08-14T16:13:26.422Z,5.38
2023-08-14T16:18:28.049Z,6.15
2023-08-14T16:23:29.638Z,4.28
2023-08-14T16:28:31.281Z,7.93
2023-08-14T16:33:32.871Z,5.05
2023-08-14T16:38:34.571Z,4.45
2023-08-14T16:43:36.141Z,5.00
2023-08-14T16:48:37.778Z,4.25
2023-08-14T16:53:39.340Z,4.15
2023-08-14T16:58:40.970Z,6.30
2023-08-14T17:03:42.599Z,4.68
2023-08-14T17:08:44.270Z,5.03
2023-08-14T17:13:45.982Z,4.15
2023-08-14T17:18:48.749Z,5.25
2023-08-14T17:23:50.333Z,6.55
2023-08-14T17:28:51.928Z,5.72
2023-08-14T17:33:53.599Z,5.15
2023-08-14T17:38:55.314Z,4.68
2023-08-14T17:43:57.063Z,5.20
2023-08-14T17:48:58.764Z,5.60
2023-08-14T17:54:00.399Z,5.53
2023-08-14T17:59:02.893Z,6.03
2023-08-14T18:04:05.170Z,5.00
2023-08-14T18:09:07.027Z,5.20
2023-08-14T18:14:08.594Z,6.03
2023-08-14T18:19:28.519Z,6.95
2023-08-14T18:24:31.078Z,5.78
2023-08-14T18:29:32.655Z,5.13
2023-08-14T18:34:34.238Z,6.40
2023-08-14T18:39:36.378Z,5.85
2023-08-14T18:44:37.958Z,7.97
2023-08-14T18:49:44.252Z,9.70
2023-08-14T18:54:47.432Z,7.63
2023-08-14T18:59:49.062Z,6.72
2023-08-14T19:04:50.714Z,4.85
2023-08-14T19:09:52.561Z,9.05
2023-08-14T19:14:54.321Z,7.40
2023-08-14T19:19:56.050Z,10.07
2023-08-14T19:24:57.634Z,8.45
2023-08-14T19:29:59.420Z,6.38
2023-08-14T19:35:02.735Z,7.53
2023-08-14T19:40:05.367Z,7.60
2023-08-14T19:45:08.831Z,5.82
2023-08-14T19:50:10.982Z,6.80
2023-08-14T19:55:12.626Z,8.88
2023-08-14T20:00:14.411Z,6.93
2023-08-14T20:05:16.021Z,7.43
2023-08-14T20:10:17.757Z,6.88
2023-08-14T20:15:19.357Z,9.65
2023-08-14T20:20:21.053Z,10.85
2023-08-14T20:25:22.638Z,8.65
2023-08-14T20:30:24.240Z,10.15
2023-08-14T20:35:25.818Z,7.93
2023-08-14T20:40:29.796Z,6.63
2023-08-14T20:45:35.411Z,10.02
2023-08-14T20:50:37.435Z,9.85
2023-08-14T20:55:42.339Z,12.90
2023-08-14T21:00:47.100Z,6.40
2023-08-14T21:05:51.278Z,8.40
2023-08-14T21:10:52.946Z,12.00
2023-08-14T21:16:01.118Z,8.98
2023-08-14T21:21:02.752Z,9.88
2023-08-14T21:26:04.378Z,9.55
2023-08-14T21:31:06.040Z,9.88
2023-08-14T21:36:07.693Z,11.02
2023-08-14T21:41:12.247Z,8.60
2023-08-14T21:46:13.908Z,11.65
2023-08-14T21:51:15.473Z,8.45
2023-08-14T21:56:17.137Z,9.45
2023-08-14T22:01:18.771Z,10.25
2023-08-14T22:06:20.520Z,9.52
2023-08-14T22:11:22.124Z,9.85
2023-08-14T22:16:23.936Z,6.55
2023-08-14T22:21:26.021Z,10.68
2023-08-14T22:26:27.613Z,13.55
2023-08-14T22:31:29.333Z,10.93
2023-08-14T22:36:31.491Z,12.77
2023-08-14T22:41:33.152Z,10.85
2023-08-14T22:46:34.741Z,9.02
2023-08-14T22:51:36.354Z,12.75
2023-08-14T22:56:37.966Z,12.20
2023-08-14T23:01:40.075Z,15.15
2023-08-14T23:06:41.707Z,11.00
2023-08-14T23:11:43.272Z,10.55
2023-08-14T23:16:47.302Z,12.32
2023-08-14T23:21:48.892Z,10.30
2023-08-14T23:26:50.491Z,11.48
2023-08-14T23:31:52.068Z,11.02
2023-08-14T23:36:53.984Z,11.38
2023-08-14T23:41:55.584Z,10.65
2023-08-14T23:46:57.490Z,12.35
2023-08-14T23:51:59.114Z,12.70
2023-08-14T23:57:00.697Z,11.77
